Aérodrome :
LOGIN :

S'inscrire | Disclaimer

   EN    FR    IT 

 










Légende :    VFR   VFR Marginal   IFR   IFR Intensif   IFR Très Intensif
Visi : 
Plafond : 
>= 8 km
>= 3000ft
5 à 8 km
1000 à 3000 ft
1500m à 5 km
500 à 1000 ft
800 à 1500m
200 à 500 ft
< 800m
< 200 ft
Symboles :   Orages  Brouillard  Fortes neiges  Fortes précipitations  Vent > 20 kt
SIGMETs :   Divers  Orages  Givrage  Turbulence  Onde Orograph.  Cendres Volcan.






- Altitude de l'aérodrome : 123 ft
- Code IATA : BLQ


LIPE - Bologna Guglielmo Marconi

DERNIER METAR :
  • 291020Z 27007KT CAVOK 12/04 Q1010

METARs EXPIRÉS :
  • 290950Z 26006KT CAVOK 10/05 Q1010
  • 290920Z 27006KT 7000 NSC 09/05 Q1010
  • 290850Z 27008KT CAVOK 08/05 Q1009
  • 290820Z 24006KT CAVOK 06/04 Q1009
  • 290750Z 22005KT CAVOK 05/03 Q1009
  • 290720Z 24007KT CAVOK 04/02 Q1008

TAF TAF LIPE
Valide du 29 à 06h jusqu'au 30 à 06h UTC


290500Z 2906/3006 26006KT 7000 NSC



MET'MAP, la Météo Aéronautique d'un coup d'oeil ! - Copyright ORBIFLY Décembre 2007 - Disclaimer

ORBIFLY MET'MAP TEAM :

Programmation & Développement : Alexandra Zaïnal
Sur une idée originale de : Baudouin d'Aumeries
Assistance à la programmation : Marc-Olivier Méhu
Soutien technique & logistique : Manuel Goepfert

Contact : metmap@orbifly.com




SOURCES & CREDITS :

   NOAA